createdAt,value
2018-05-16T00:01:32.791Z,16.10
2018-05-16T00:04:05.822Z,16.10
2018-05-16T00:06:38.206Z,16.00
2018-05-16T00:09:10.577Z,16.10
2018-05-16T00:11:42.964Z,16.00
2018-05-16T00:14:15.317Z,16.10
2018-05-16T00:16:47.735Z,16.00
2018-05-16T00:19:20.038Z,16.00
2018-05-16T00:21:52.346Z,15.90
2018-05-16T00:24:24.729Z,15.90
2018-05-16T00:26:57.156Z,15.90
2018-05-16T00:29:29.565Z,15.90
2018-05-16T00:32:01.893Z,15.90
2018-05-16T00:34:34.888Z,15.90
2018-05-16T00:37:07.226Z,15.90
2018-05-16T00:39:39.481Z,16.00
2018-05-16T00:42:11.876Z,16.00
2018-05-16T00:44:44.211Z,16.00
2018-05-16T00:47:16.479Z,16.00
2018-05-16T00:49:48.827Z,16.00
2018-05-16T00:52:21.175Z,16.00
2018-05-16T00:54:54.238Z,15.90
2018-05-16T00:57:26.540Z,15.90
2018-05-16T00:59:58.836Z,15.90
2018-05-16T01:02:31.225Z,15.80
2018-05-16T01:05:03.625Z,15.60
2018-05-16T01:07:36.015Z,15.60
2018-05-16T01:10:08.306Z,15.50
2018-05-16T01:12:41.482Z,15.40
2018-05-16T01:15:13.851Z,15.40
2018-05-16T01:17:46.981Z,15.30
2018-05-16T01:20:20.041Z,15.30
2018-05-16T01:22:53.266Z,15.30
2018-05-16T01:25:25.582Z,15.30
2018-05-16T01:27:57.994Z,15.20
2018-05-16T01:30:30.292Z,15.20
2018-05-16T01:33:02.650Z,15.20
2018-05-16T01:35:34.891Z,15.20
2018-05-16T01:38:07.302Z,15.20
2018-05-16T01:40:39.583Z,15.10
2018-05-16T01:43:12.049Z,15.10
2018-05-16T01:45:44.425Z,15.00
2018-05-16T01:48:17.597Z,15.10
2018-05-16T01:50:49.940Z,15.10
2018-05-16T01:53:22.281Z,15.10
2018-05-16T01:55:55.170Z,15.20
2018-05-16T01:58:27.513Z,15.20
2018-05-16T02:00:59.790Z,15.20
2018-05-16T02:03:32.112Z,15.10
2018-05-16T02:06:05.194Z,15.10
2018-05-16T02:08:37.489Z,15.00
2018-05-16T02:11:10.798Z,15.10
2018-05-16T02:13:43.060Z,15.10
2018-05-16T02:16:15.334Z,15.00
2018-05-16T02:18:47.917Z,15.10
2018-05-16T02:21:20.271Z,15.00
2018-05-16T02:23:52.606Z,15.10
2018-05-16T02:26:24.960Z,15.10
2018-05-16T02:28:57.308Z,15.20
2018-05-16T02:31:29.647Z,15.30
2018-05-16T02:34:01.898Z,15.30
2018-05-16T02:36:34.280Z,15.30
2018-05-16T02:39:06.631Z,15.40
2018-05-16T02:41:39.010Z,15.30
2018-05-16T02:44:11.403Z,15.40
2018-05-16T02:46:44.544Z,15.40
2018-05-16T02:49:16.926Z,15.40
2018-05-16T02:51:49.213Z,15.40
2018-05-16T02:54:21.749Z,15.40
2018-05-16T02:56:53.931Z,15.40
2018-05-16T02:59:26.391Z,15.40
2018-05-16T03:01:58.664Z,15.40
2018-05-16T03:04:31.054Z,15.50
2018-05-16T03:07:03.418Z,15.40
2018-05-16T03:09:35.866Z,15.40
2018-05-16T03:12:08.144Z,15.40
2018-05-16T03:14:40.546Z,15.40
2018-05-16T03:17:12.830Z,15.40
2018-05-16T03:19:45.235Z,15.40
2018-05-16T03:22:18.339Z,15.30
2018-05-16T03:24:51.424Z,15.30
2018-05-16T03:27:24.463Z,15.30
2018-05-16T03:29:56.773Z,15.30
2018-05-16T03:32:29.048Z,15.40
2018-05-16T03:35:01.398Z,15.40
2018-05-16T03:37:33.730Z,15.40
2018-05-16T03:40:06.136Z,15.40
2018-05-16T03:42:38.503Z,15.40
2018-05-16T03:45:10.823Z,15.40
2018-05-16T03:47:43.198Z,15.40
2018-05-16T03:50:15.551Z,15.40
2018-05-16T03:52:47.799Z,15.50
2018-05-16T03:55:20.302Z,15.40
2018-05-16T03:58:20.609Z,15.40
2018-05-16T04:01:16.128Z,15.40
2018-05-16T04:04:00.755Z,15.30
2018-05-16T04:06:32.979Z,15.30
2018-05-16T04:09:05.985Z,15.20
2018-05-16T04:11:38.336Z,15.20
2018-05-16T04:14:11.326Z,15.20
2018-05-16T04:16:51.441Z,15.30
2018-05-16T04:19:23.725Z,15.30
2018-05-16T04:21:56.211Z,15.30
2018-05-16T04:24:29.279Z,15.30
2018-05-16T04:27:01.566Z,15.40
2018-05-16T04:29:33.814Z,15.40
2018-05-16T04:32:06.259Z,15.40
2018-05-16T04:34:38.832Z,15.40
2018-05-16T04:37:11.290Z,15.50
2018-05-16T04:39:43.655Z,15.50
2018-05-16T04:42:16.627Z,15.60
2018-05-16T04:44:48.876Z,15.50
2018-05-16T04:47:21.183Z,15.60
2018-05-16T04:49:54.243Z,15.60
2018-05-16T04:52:26.701Z,15.60
2018-05-16T04:54:59.037Z,15.60
2018-05-16T04:57:31.513Z,15.60
2018-05-16T05:00:03.786Z,15.70
2018-05-16T05:02:36.161Z,15.70
2018-05-16T05:05:08.513Z,15.70
2018-05-16T05:07:41.630Z,15.70
2018-05-16T05:10:13.962Z,15.70
2018-05-16T05:12:46.266Z,15.80
2018-05-16T05:15:18.557Z,15.80
2018-05-16T05:17:50.836Z,15.80
2018-05-16T05:20:23.151Z,15.70
2018-05-16T05:22:56.201Z,15.80
2018-05-16T05:25:28.573Z,15.70
2018-05-16T05:28:01.089Z,15.80
2018-05-16T05:30:34.322Z,15.90
2018-05-16T05:33:06.711Z,15.90
2018-05-16T05:35:39.089Z,15.90
2018-05-16T05:38:12.676Z,15.90
2018-05-16T05:40:45.020Z,16.00
2018-05-16T05:43:17.542Z,16.00
2018-05-16T05:45:49.807Z,16.00
2018-05-16T05:48:22.204Z,16.00
2018-05-16T05:50:54.497Z,16.00
2018-05-16T05:53:27.617Z,16.10
2018-05-16T05:55:59.978Z,16.00
2018-05-16T05:58:32.366Z,16.10
2018-05-16T06:01:04.701Z,16.20
2018-05-16T06:03:37.910Z,16.40
2018-05-16T06:06:10.225Z,16.40
2018-05-16T06:08:42.509Z,16.40
2018-05-16T06:11:14.819Z,16.40
2018-05-16T06:13:47.981Z,16.40
2018-05-16T06:16:20.335Z,16.40
2018-05-16T06:18:52.818Z,16.40
2018-05-16T06:21:25.177Z,16.50
2018-05-16T06:23:57.467Z,16.60
2018-05-16T06:26:29.829Z,16.70
2018-05-16T06:29:02.095Z,16.60
2018-05-16T06:31:34.321Z,16.80
2018-05-16T06:34:06.604Z,16.80
2018-05-16T06:36:39.014Z,16.80
2018-05-16T06:39:11.534Z,16.70
2018-05-16T06:41:43.858Z,16.80
2018-05-16T06:44:16.218Z,16.80
2018-05-16T06:46:48.601Z,16.70
2018-05-16T06:49:20.997Z,16.70
2018-05-16T06:51:53.440Z,16.70
2018-05-16T06:54:25.948Z,16.70
2018-05-16T06:56:58.322Z,16.70
2018-05-16T06:59:31.527Z,16.80
2018-05-16T07:02:04.687Z,17.10
2018-05-16T07:04:37.101Z,17.00
2018-05-16T07:07:10.236Z,17.30
2018-05-16T07:09:42.646Z,17.30
2018-05-16T07:12:14.985Z,17.50
2018-05-16T07:14:47.290Z,17.60
2018-05-16T07:17:19.555Z,17.70
2018-05-16T07:19:52.699Z,18.10
2018-05-16T07:22:24.971Z,18.00
2018-05-16T07:24:57.336Z,18.10
2018-05-16T07:27:29.791Z,18.20
2018-05-16T07:30:02.871Z,18.10
2018-05-16T07:32:35.271Z,18.00
2018-05-16T07:35:07.617Z,17.90
2018-05-16T07:37:40.742Z,18.20
2018-05-16T07:40:13.163Z,18.20
2018-05-16T07:42:45.492Z,18.30
2018-05-16T07:45:18.036Z,18.40
2018-05-16T07:47:50.346Z,18.50
2018-05-16T07:50:22.702Z,18.70
2018-05-16T07:52:55.049Z,18.70
2018-05-16T07:55:28.211Z,19.00
2018-05-16T07:58:00.546Z,19.00
2018-05-16T08:00:32.980Z,19.20
2018-05-16T08:03:06.042Z,19.40
2018-05-16T08:05:38.437Z,19.40
2018-05-16T08:08:11.590Z,19.80
2018-05-16T08:10:43.954Z,19.80
2018-05-16T08:13:16.340Z,19.90
2018-05-16T08:15:48.665Z,20.30
2018-05-16T08:18:21.714Z,21.70
2018-05-16T08:20:54.031Z,21.70
2018-05-16T08:23:26.435Z,22.40
2018-05-16T08:25:58.865Z,23.70
2018-05-16T08:28:31.173Z,25.40
2018-05-16T08:31:03.835Z,26.30
2018-05-16T08:33:36.155Z,26.80
2018-05-16T08:36:08.823Z,27.20
2018-05-16T08:38:41.139Z,27.30
2018-05-16T08:41:13.616Z,27.50
2018-05-16T08:43:46.775Z,27.10
2018-05-16T08:46:19.142Z,27.10
2018-05-16T08:48:51.502Z,27.40
2018-05-16T08:51:23.846Z,27.40
2018-05-16T08:53:56.215Z,26.70
2018-05-16T08:56:28.562Z,26.50
2018-05-16T08:59:00.817Z,26.80
2018-05-16T09:01:33.900Z,26.50
2018-05-16T09:04:06.244Z,26.50
2018-05-16T09:06:38.590Z,26.70
2018-05-16T09:09:10.983Z,26.80
2018-05-16T09:11:43.318Z,27.00
2018-05-16T09:14:15.747Z,27.40
2018-05-16T09:16:48.189Z,27.80
2018-05-16T09:19:20.475Z,28.00
2018-05-16T09:21:53.060Z,28.10
2018-05-16T09:24:25.428Z,27.90
2018-05-16T09:26:57.726Z,27.60
2018-05-16T09:29:30.082Z,27.80
2018-05-16T09:32:02.681Z,27.70
2018-05-16T09:34:34.974Z,28.20
2018-05-16T09:37:08.114Z,28.50
2018-05-16T09:39:40.513Z,28.40
2018-05-16T09:42:12.877Z,28.90
2018-05-16T09:44:45.296Z,29.50
2018-05-16T09:47:17.821Z,29.30
2018-05-16T09:49:50.127Z,28.60
2018-05-16T09:52:23.419Z,27.60
2018-05-16T09:54:56.518Z,27.20
2018-05-16T09:57:29.764Z,26.30
2018-05-16T10:00:02.025Z,26.30
2018-05-16T10:02:34.440Z,26.10
2018-05-16T10:05:07.335Z,25.40
2018-05-16T10:07:40.341Z,25.10
2018-05-16T10:10:12.654Z,25.10
2018-05-16T10:12:44.967Z,25.20
2018-05-16T10:15:17.923Z,24.30
2018-05-16T10:17:50.596Z,24.20
2018-05-16T10:20:22.926Z,23.80
2018-05-16T10:22:55.263Z,23.30
2018-05-16T10:25:27.577Z,22.90
2018-05-16T10:27:59.945Z,22.50
2018-05-16T10:30:32.271Z,22.20
2018-05-16T10:33:05.458Z,21.80
2018-05-16T10:35:37.740Z,21.80
2018-05-16T10:38:10.939Z,21.60
2018-05-16T10:40:44.101Z,21.60
2018-05-16T10:43:16.445Z,21.60
2018-05-16T10:45:48.708Z,21.60
2018-05-16T10:48:21.073Z,21.50
2018-05-16T10:50:53.520Z,21.80
2018-05-16T10:53:26.660Z,21.90
2018-05-16T10:55:58.991Z,21.90
2018-05-16T10:58:31.446Z,21.80
2018-05-16T11:01:03.782Z,21.30
2018-05-16T11:03:36.128Z,21.40
2018-05-16T11:06:08.452Z,21.60
2018-05-16T11:08:41.025Z,21.40
2018-05-16T11:11:14.286Z,21.40
2018-05-16T11:13:46.589Z,22.10
2018-05-16T11:16:18.851Z,22.30
2018-05-16T11:18:51.144Z,21.90
2018-05-16T11:21:23.467Z,21.60
2018-05-16T11:23:55.814Z,21.60
2018-05-16T11:26:29.360Z,21.60
2018-05-16T11:29:01.448Z,21.60
2018-05-16T11:31:33.933Z,21.30
2018-05-16T11:34:06.218Z,20.80
2018-05-16T11:36:39.307Z,19.90
2018-05-16T11:39:11.660Z,19.90
2018-05-16T11:41:43.979Z,19.50
2018-05-16T11:44:16.439Z,19.40
2018-05-16T11:46:48.711Z,19.40
2018-05-16T11:49:21.037Z,19.20
2018-05-16T11:51:53.311Z,19.20
2018-05-16T11:54:25.689Z,19.10
2018-05-16T11:56:58.060Z,19.40
2018-05-16T11:59:30.445Z,19.40
2018-05-16T12:02:02.743Z,19.90
2018-05-16T12:04:35.060Z,19.70
2018-05-16T12:07:07.340Z,19.80
2018-05-16T12:09:39.902Z,19.50
2018-05-16T12:12:12.293Z,19.60
2018-05-16T12:14:44.672Z,19.50
2018-05-16T12:17:16.907Z,19.30
2018-05-16T12:19:49.208Z,19.00
2018-05-16T12:22:21.500Z,19.40
2018-05-16T12:24:54.572Z,19.20
2018-05-16T12:27:26.854Z,19.20
2018-05-16T12:29:59.228Z,19.00
2018-05-16T12:32:31.653Z,18.90
2018-05-16T12:35:04.045Z,18.80
2018-05-16T12:37:36.324Z,18.40
2018-05-16T12:40:08.670Z,18.60
2018-05-16T12:42:40.953Z,18.70
2018-05-16T12:45:13.366Z,18.90
2018-05-16T12:47:46.532Z,18.80
2018-05-16T12:50:18.913Z,18.70
2018-05-16T12:52:51.262Z,19.00
2018-05-16T12:55:23.557Z,19.10
2018-05-16T12:57:55.836Z,19.00
2018-05-16T13:00:28.205Z,18.70
2018-05-16T13:03:00.757Z,18.50
2018-05-16T13:05:33.073Z,18.30
2018-05-16T13:08:06.084Z,18.20
2018-05-16T13:10:38.369Z,18.10
2018-05-16T13:13:10.751Z,17.90
2018-05-16T13:15:43.121Z,17.70
2018-05-16T13:18:15.469Z,17.40
2018-05-16T13:20:47.909Z,17.60
2018-05-16T13:23:20.193Z,17.60
2018-05-16T13:25:53.389Z,17.70
2018-05-16T13:28:26.409Z,17.50
2018-05-16T13:30:58.959Z,17.50
2018-05-16T13:33:32.038Z,17.30
2018-05-16T13:36:05.205Z,17.40
2018-05-16T13:38:37.549Z,17.40
2018-05-16T13:41:10.149Z,17.50
2018-05-16T13:43:42.520Z,17.70
2018-05-16T13:46:14.980Z,17.80
2018-05-16T13:48:47.404Z,17.80
2018-05-16T13:51:20.525Z,17.50
2018-05-16T13:53:52.856Z,17.50
2018-05-16T13:56:26.005Z,17.50
2018-05-16T13:58:58.351Z,17.40
2018-05-16T14:01:30.683Z,17.10
2018-05-16T14:04:03.078Z,16.90
2018-05-16T14:06:35.712Z,17.00
2018-05-16T14:09:07.997Z,17.10
2018-05-16T14:11:40.483Z,17.10
2018-05-16T14:14:13.520Z,16.80
2018-05-16T14:16:46.153Z,16.80
2018-05-16T14:19:18.481Z,16.80
2018-05-16T14:21:50.802Z,16.70
2018-05-16T14:24:23.166Z,16.70
2018-05-16T14:26:55.584Z,16.80
2018-05-16T14:29:27.845Z,16.70
2018-05-16T14:32:00.915Z,16.40
2018-05-16T14:34:33.605Z,16.40
2018-05-16T14:37:06.071Z,16.50
2018-05-16T14:39:39.129Z,16.20
2018-05-16T14:42:11.517Z,16.20
2018-05-16T14:44:43.766Z,16.30
2018-05-16T14:47:16.141Z,16.30
2018-05-16T14:49:48.505Z,16.40
2018-05-16T14:52:20.980Z,16.30
2018-05-16T14:54:53.232Z,16.30
2018-05-16T14:57:25.575Z,16.20
2018-05-16T14:59:57.957Z,15.80
2018-05-16T15:02:30.316Z,15.40
2018-05-16T15:05:02.629Z,15.30
2018-05-16T15:07:34.976Z,15.30
2018-05-16T15:10:07.230Z,15.30
2018-05-16T15:12:39.616Z,15.30
2018-05-16T15:15:12.168Z,15.30
2018-05-16T15:17:44.472Z,15.20
2018-05-16T15:20:16.864Z,15.30
2018-05-16T15:22:49.254Z,15.30
2018-05-16T15:25:21.558Z,15.50
2018-05-16T15:27:54.725Z,15.40
2018-05-16T15:30:27.105Z,15.40
2018-05-16T15:33:00.237Z,15.50
2018-05-16T15:35:32.573Z,15.40
2018-05-16T15:38:05.675Z,15.70
2018-05-16T15:40:38.821Z,15.40
2018-05-16T15:43:11.162Z,15.40
2018-05-16T15:45:43.659Z,15.40
2018-05-16T15:48:15.957Z,15.20
2018-05-16T15:50:48.297Z,15.10
2018-05-16T15:53:20.608Z,15.10
2018-05-16T15:55:52.910Z,15.10
2018-05-16T15:58:25.268Z,15.10
2018-05-16T16:00:57.571Z,15.30
2018-05-16T16:03:30.130Z,15.40
2018-05-16T16:06:02.689Z,15.50
2018-05-16T16:08:35.804Z,15.50
2018-05-16T16:11:08.115Z,15.50
2018-05-16T16:13:40.685Z,15.60
2018-05-16T16:16:13.157Z,15.30
2018-05-16T16:18:45.497Z,15.20
2018-05-16T16:21:17.902Z,15.10
2018-05-16T16:23:50.441Z,15.10
2018-05-16T16:26:22.766Z,15.20
2018-05-16T16:28:55.025Z,15.30
2018-05-16T16:31:27.460Z,15.20
2018-05-16T16:33:59.931Z,15.00
2018-05-16T16:36:32.210Z,14.90
2018-05-16T16:39:04.726Z,15.00
2018-05-16T16:41:37.067Z,15.10
2018-05-16T16:44:09.381Z,15.10
2018-05-16T16:46:41.611Z,15.20
2018-05-16T16:49:13.988Z,15.10
2018-05-16T16:51:46.406Z,15.10
2018-05-16T16:54:18.758Z,14.90
2018-05-16T16:56:51.048Z,14.90
2018-05-16T16:59:23.435Z,14.50
2018-05-16T17:01:56.587Z,14.30
2018-05-16T17:04:28.878Z,14.30
2018-05-16T17:07:01.234Z,14.10
2018-05-16T17:09:33.648Z,14.20
2018-05-16T17:12:06.795Z,14.00
2018-05-16T17:14:39.225Z,14.00
2018-05-16T17:17:11.534Z,14.00
2018-05-16T17:19:43.861Z,13.90
2018-05-16T17:22:16.893Z,13.80
2018-05-16T17:24:49.328Z,13.80
2018-05-16T17:27:22.333Z,13.70
2018-05-16T17:29:54.605Z,13.70
2018-05-16T17:32:26.884Z,13.80
2018-05-16T17:34:59.321Z,13.70
2018-05-16T17:37:32.416Z,13.60
2018-05-16T17:40:04.708Z,13.60
2018-05-16T17:42:37.292Z,13.60
2018-05-16T17:45:09.700Z,13.50
2018-05-16T17:47:42.009Z,13.40
2018-05-16T17:50:15.079Z,13.30
2018-05-16T17:52:47.340Z,13.30
2018-05-16T17:55:19.720Z,13.30
2018-05-16T17:57:52.005Z,13.40
2018-05-16T18:00:25.086Z,13.30
2018-05-16T18:02:58.213Z,13.20
2018-05-16T18:05:30.548Z,13.20
2018-05-16T18:08:02.856Z,13.10
2018-05-16T18:10:35.270Z,13.20
2018-05-16T18:16:40.600Z,13.20
2018-05-16T18:19:12.853Z,13.10
2018-05-16T18:21:45.212Z,13.10
2018-05-16T18:24:18.275Z,13.00
2018-05-16T18:26:51.412Z,12.90
2018-05-16T18:29:23.794Z,12.90
2018-05-16T18:31:56.165Z,12.80
2018-05-16T18:34:28.597Z,12.90
2018-05-16T18:37:01.673Z,12.90
2018-05-16T18:39:34.030Z,13.00
2018-05-16T18:42:06.328Z,12.90
2018-05-16T18:44:38.681Z,12.70
2018-05-16T18:47:10.968Z,12.60
2018-05-16T18:49:43.257Z,12.60
2018-05-16T18:52:16.517Z,12.60
2018-05-16T18:54:49.562Z,12.60
2018-05-16T18:57:21.933Z,12.60
2018-05-16T18:59:54.311Z,12.60
2018-05-16T19:02:26.635Z,12.50
2018-05-16T19:04:59.728Z,12.30
2018-05-16T19:07:32.198Z,12.30
2018-05-16T19:10:04.522Z,12.30
2018-05-16T19:12:36.957Z,12.20
2018-05-16T19:15:10.044Z,12.00
2018-05-16T19:17:43.352Z,12.00
2018-05-16T19:20:16.454Z,11.90
2018-05-16T19:22:48.763Z,11.90
2018-05-16T19:25:21.112Z,11.80
2018-05-16T19:27:53.521Z,11.80
2018-05-16T19:30:26.180Z,11.70
2018-05-16T19:32:58.527Z,11.70
2018-05-16T19:35:30.857Z,11.70
2018-05-16T19:38:03.155Z,11.70
2018-05-16T19:40:36.311Z,11.40
2018-05-16T19:43:08.686Z,11.40
2018-05-16T19:45:41.008Z,11.30
2018-05-16T19:48:13.332Z,11.40
2018-05-16T19:50:45.895Z,11.30
2018-05-16T19:53:18.315Z,11.30
2018-05-16T19:55:50.667Z,11.30
2018-05-16T19:58:22.953Z,11.30
2018-05-16T20:00:55.294Z,11.30
2018-05-16T20:03:27.612Z,11.20
2018-05-16T20:05:59.992Z,11.20
2018-05-16T20:08:32.311Z,11.10
2018-05-16T20:11:04.670Z,11.00
2018-05-16T20:13:37.100Z,11.10
2018-05-16T20:16:09.399Z,11.10
2018-05-16T20:18:41.968Z,11.10
2018-05-16T20:21:15.102Z,10.90
2018-05-16T20:23:47.451Z,11.00
2018-05-16T20:26:19.730Z,11.00
2018-05-16T20:28:52.162Z,11.00
2018-05-16T20:31:24.546Z,10.90
2018-05-16T20:33:56.800Z,10.80
2018-05-16T20:36:29.153Z,10.80
2018-05-16T20:39:02.231Z,10.60
2018-05-16T20:41:35.384Z,10.60
2018-05-16T20:44:07.733Z,10.60
2018-05-16T20:46:40.101Z,10.60
2018-05-16T20:49:12.599Z,10.50
2018-05-16T20:51:44.963Z,10.50
2018-05-16T20:54:17.591Z,10.50
2018-05-16T20:56:50.782Z,10.50
2018-05-16T20:59:23.146Z,10.50
2018-05-16T21:01:55.454Z,10.40
2018-05-16T21:04:27.803Z,10.50
2018-05-16T21:07:00.808Z,10.40
2018-05-16T21:09:33.057Z,10.40
2018-05-16T21:12:06.210Z,10.40
2018-05-16T21:14:38.590Z,10.40
2018-05-16T21:17:10.908Z,10.40
2018-05-16T21:19:44.020Z,10.30
2018-05-16T21:22:16.365Z,10.30
2018-05-16T21:24:48.849Z,10.20
2018-05-16T21:27:21.927Z,10.30
2018-05-16T21:29:54.982Z,10.20
2018-05-16T21:32:27.274Z,10.20
2018-05-16T21:34:59.639Z,10.20
2018-05-16T21:37:32.044Z,10.20
2018-05-16T21:40:05.173Z,10.20
2018-05-16T21:42:37.472Z,10.20
2018-05-16T21:45:09.807Z,10.20
2018-05-16T21:47:42.213Z,10.10
2018-05-16T21:50:14.675Z,10.10
2018-05-16T21:52:46.985Z,10.10
2018-05-16T21:55:19.300Z,10.20
2018-05-16T21:57:51.941Z,10.10
2018-05-16T22:00:24.999Z,10.10
2018-05-16T22:02:57.347Z,10.00
2018-05-16T22:05:29.643Z,10.10
2018-05-16T22:08:02.047Z,10.10
2018-05-16T22:10:34.603Z,10.00
2018-05-16T22:13:06.924Z,10.10
2018-05-16T22:15:39.350Z,10.00
2018-05-16T22:18:12.384Z,10.00
2018-05-16T22:20:44.617Z,10.00
2018-05-16T22:23:17.731Z,10.00
2018-05-16T22:25:50.067Z,10.00
2018-05-16T22:28:22.505Z,10.00
2018-05-16T22:30:54.811Z,10.00
2018-05-16T22:33:27.192Z,10.00
2018-05-16T22:35:59.545Z,10.00
2018-05-16T22:38:31.905Z,10.00
2018-05-16T22:41:04.268Z,10.00
2018-05-16T22:43:36.552Z,10.00
2018-05-16T22:46:09.068Z,10.10
2018-05-16T22:48:42.036Z,10.00
2018-05-16T22:51:15.324Z,10.00
2018-05-16T22:53:47.755Z,10.10
2018-05-16T22:56:20.176Z,10.10
2018-05-16T22:58:52.512Z,10.00
2018-05-16T23:01:24.953Z,10.10
2018-05-16T23:03:57.283Z,10.10
2018-05-16T23:06:29.676Z,10.10
2018-05-16T23:09:02.800Z,10.10
2018-05-16T23:11:35.118Z,10.10
2018-05-16T23:14:07.630Z,10.20
2018-05-16T23:16:39.958Z,10.20
2018-05-16T23:19:12.343Z,10.20
2018-05-16T23:21:45.432Z,10.20
2018-05-16T23:24:17.707Z,10.20
2018-05-16T23:26:50.282Z,10.20
2018-05-16T23:29:22.678Z,10.20
2018-05-16T23:31:55.043Z,10.30
2018-05-16T23:34:27.393Z,10.20
2018-05-16T23:36:59.815Z,10.20
2018-05-16T23:39:32.240Z,10.20
2018-05-16T23:42:04.704Z,10.20
2018-05-16T23:44:37.007Z,10.20
2018-05-16T23:47:09.316Z,10.20
2018-05-16T23:49:41.729Z,10.20
2018-05-16T23:52:14.146Z,10.20
2018-05-16T23:54:46.569Z,10.20
2018-05-16T23:57:18.879Z,10.20
2018-05-16T23:59:51.907Z,10.20
